createdAt,value
2022-12-18T00:02:19.276Z,48.97
2022-12-18T00:04:50.076Z,47.53
2022-12-18T00:07:23.108Z,55.33
2022-12-18T00:10:03.269Z,57.63
2022-12-18T00:12:33.498Z,58.65
2022-12-18T00:15:05.342Z,49.20
2022-12-18T00:17:33.292Z,52.47
2022-12-18T00:20:01.141Z,57.03
2022-12-18T00:22:29.090Z,61.15
2022-12-18T00:24:59.187Z,57.50
2022-12-18T00:27:50.268Z,52.30
2022-12-18T00:30:18.985Z,46.75
2022-12-18T00:33:08.350Z,60.15
2022-12-18T00:35:39.049Z,51.88
2022-12-18T00:38:23.524Z,47.42
2022-12-18T00:41:12.539Z,55.80
2022-12-18T00:43:41.083Z,50.35
2022-12-18T00:46:09.288Z,48.55
2022-12-18T00:48:53.890Z,50.95
2022-12-18T00:51:22.014Z,60.28
2022-12-18T00:53:51.815Z,56.58
2022-12-18T00:56:34.051Z,58.67
2022-12-18T00:59:10.927Z,52.92
2022-12-18T01:01:38.950Z,45.38
2022-12-18T01:04:07.250Z,45.58
2022-12-18T01:06:35.543Z,47.40
2022-12-18T01:09:03.809Z,63.72
2022-12-18T01:11:35.704Z,49.22
2022-12-18T01:14:04.063Z,45.05
2022-12-18T01:16:32.674Z,42.05
2022-12-18T01:19:11.920Z,60.33
2022-12-18T01:21:57.098Z,46.55
2022-12-18T01:24:30.162Z,49.42
2022-12-18T01:27:03.113Z,43.70
2022-12-18T01:29:31.169Z,53.10
2022-12-18T01:31:59.346Z,50.70
2022-12-18T01:34:27.522Z,42.88
2022-12-18T01:36:55.450Z,40.60
2022-12-18T01:39:23.399Z,53.08
2022-12-18T01:42:03.552Z,46.40
2022-12-18T01:45:07.792Z,45.22
2022-12-18T01:47:47.759Z,44.85
2022-12-18T01:50:19.428Z,48.95
2022-12-18T01:52:56.197Z,40.55
2022-12-18T01:55:27.883Z,47.90
2022-12-18T01:58:00.471Z,43.47
2022-12-18T02:03:13.871Z,52.13
2022-12-18T02:05:57.080Z,37.88
2022-12-18T02:08:33.275Z,54.13
2022-12-18T02:11:09.360Z,45.90
2022-12-18T02:13:44.482Z,46.13
2022-12-18T02:16:24.159Z,50.85
2022-12-18T02:18:58.737Z,57.30
2022-12-18T02:21:36.274Z,49.47
2022-12-18T02:24:18.372Z,54.40
2022-12-18T02:26:51.185Z,49.75
2022-12-18T02:29:23.409Z,42.47
2022-12-18T02:34:46.210Z,40.97
2022-12-18T02:37:30.438Z,47.22
2022-12-18T02:40:09.746Z,48.70
2022-12-18T02:42:41.717Z,43.50
2022-12-18T02:45:10.417Z,55.70
2022-12-18T02:47:47.531Z,38.15
2022-12-18T02:50:29.149Z,50.95
2022-12-18T02:53:05.418Z,49.47
2022-12-18T02:55:45.854Z,56.65
2022-12-18T02:58:23.902Z,42.95
2022-12-18T03:00:56.969Z,44.88
2022-12-18T03:03:37.910Z,42.67
2022-12-18T03:06:11.051Z,62.00
2022-12-18T03:08:42.269Z,51.22
2022-12-18T03:11:13.059Z,40.97
2022-12-18T03:13:48.326Z,47.47
2022-12-18T03:16:23.966Z,71.68
2022-12-18T03:18:56.910Z,42.83
2022-12-18T03:21:30.244Z,60.35
2022-12-18T03:23:58.885Z,51.78
2022-12-18T03:26:29.956Z,49.15
2022-12-18T03:29:04.936Z,51.83
2022-12-18T03:31:37.448Z,62.55
2022-12-18T03:34:21.617Z,54.50
2022-12-18T03:36:49.767Z,58.58
2022-12-18T03:39:18.018Z,55.30
2022-12-18T03:41:53.102Z,58.20
2022-12-18T03:44:28.989Z,56.10
2022-12-18T03:47:05.717Z,52.28
2022-12-18T03:49:39.487Z,46.13
2022-12-18T03:52:12.251Z,51.90
2022-12-18T03:54:42.864Z,56.38
2022-12-18T03:57:17.319Z,49.17
2022-12-18T03:59:49.495Z,55.70
2022-12-18T04:02:19.437Z,55.28
2022-12-18T04:04:52.504Z,51.00
2022-12-18T04:07:21.795Z,54.63
2022-12-18T04:09:52.379Z,51.17
2022-12-18T04:12:23.557Z,58.15
2022-12-18T04:14:52.912Z,50.22
2022-12-18T04:17:20.989Z,62.03
2022-12-18T04:19:49.083Z,67.80
2022-12-18T04:22:17.442Z,59.97
2022-12-18T04:24:45.402Z,55.95
2022-12-18T04:27:14.968Z,56.45
2022-12-18T04:29:43.040Z,51.40
2022-12-18T04:32:12.631Z,61.70
2022-12-18T04:34:40.628Z,67.95
2022-12-18T04:37:09.094Z,69.38
2022-12-18T04:39:37.159Z,66.68
2022-12-18T04:42:05.251Z,52.40
2022-12-18T04:44:38.364Z,54.53
2022-12-18T04:47:06.828Z,44.60
2022-12-18T04:49:36.273Z,57.75
2022-12-18T04:52:04.254Z,59.63
2022-12-18T04:54:32.138Z,56.33
2022-12-18T04:56:59.965Z,75.65
2022-12-18T04:59:28.176Z,56.60
2022-12-18T05:02:03.794Z,48.70
2022-12-18T05:04:31.909Z,67.93
2022-12-18T05:07:08.808Z,58.80
2022-12-18T05:09:36.798Z,51.78
2022-12-18T05:12:07.336Z,71.78
2022-12-18T05:14:35.383Z,58.90
2022-12-18T05:17:03.430Z,66.68
2022-12-18T05:19:31.275Z,63.17
2022-12-18T05:21:59.602Z,54.58
2022-12-18T05:24:29.053Z,46.45
2022-12-18T05:26:57.035Z,68.43
2022-12-18T05:29:27.337Z,58.00
2022-12-18T05:31:58.177Z,54.78
2022-12-18T05:34:34.443Z,45.10
2022-12-18T05:37:04.860Z,46.53
2022-12-18T05:39:39.735Z,55.67
2022-12-18T05:42:07.976Z,48.00
2022-12-18T05:44:35.979Z,48.70
2022-12-18T05:47:03.932Z,62.63
2022-12-18T05:49:31.843Z,51.38
2022-12-18T05:51:59.692Z,60.88
2022-12-18T05:54:29.443Z,63.80
2022-12-18T05:56:58.933Z,65.25
2022-12-18T05:59:29.880Z,48.22
2022-12-18T06:02:04.464Z,45.28
2022-12-18T06:04:41.510Z,56.28
2022-12-18T06:07:14.830Z,48.10
2022-12-18T06:09:42.856Z,54.22
2022-12-18T06:12:12.754Z,55.45
2022-12-18T06:14:40.709Z,56.53
2022-12-18T06:17:08.712Z,53.28
2022-12-18T06:19:36.843Z,47.80
2022-12-18T06:22:04.952Z,54.28
2022-12-18T06:24:34.107Z,58.45
2022-12-18T06:27:02.093Z,52.42
2022-12-18T06:29:31.437Z,54.00
2022-12-18T06:31:59.467Z,53.25
2022-12-18T06:34:27.717Z,67.35
2022-12-18T06:36:55.736Z,58.67
2022-12-18T06:39:23.796Z,62.85
2022-12-18T06:41:51.806Z,54.03
2022-12-18T06:44:21.478Z,52.05
2022-12-18T06:46:50.793Z,59.08
2022-12-18T06:49:18.768Z,57.58
2022-12-18T06:51:46.745Z,60.78
2022-12-18T06:54:15.418Z,62.85
2022-12-18T06:56:46.785Z,64.53
2022-12-18T06:59:15.429Z,59.10
2022-12-18T07:01:43.555Z,66.25
2022-12-18T07:04:13.048Z,58.95
2022-12-18T07:06:41.183Z,49.08
2022-12-18T07:09:10.699Z,61.25
2022-12-18T07:11:38.610Z,53.00
2022-12-18T07:14:06.721Z,61.40
2022-12-18T07:16:37.094Z,62.90
2022-12-18T07:19:07.528Z,54.85
2022-12-18T07:21:38.962Z,62.35
2022-12-18T07:24:09.754Z,68.15
2022-12-18T07:26:37.634Z,63.03
2022-12-18T07:29:05.552Z,70.50
2022-12-18T07:31:35.678Z,61.40
2022-12-18T07:34:04.941Z,55.55
2022-12-18T07:36:34.624Z,46.38
2022-12-18T07:39:03.859Z,56.25
2022-12-18T07:41:31.743Z,51.22
2022-12-18T07:43:59.658Z,56.80
2022-12-18T07:46:27.527Z,59.47
2022-12-18T07:48:55.540Z,60.55
2022-12-18T07:51:24.358Z,56.13
2022-12-18T07:53:53.075Z,48.00
2022-12-18T07:56:31.389Z,50.75
2022-12-18T07:59:00.406Z,49.35
2022-12-18T08:01:28.855Z,51.08
2022-12-18T08:03:56.923Z,48.17
2022-12-18T08:06:25.201Z,50.65
2022-12-18T08:08:54.540Z,68.03
2022-12-18T08:11:25.167Z,65.78
2022-12-18T08:13:53.038Z,51.05
2022-12-18T08:16:24.566Z,49.63
2022-12-18T08:18:54.221Z,55.50
2022-12-18T08:21:25.373Z,54.92
2022-12-18T08:23:54.820Z,62.55
2022-12-18T08:26:24.648Z,47.10
2022-12-18T08:28:59.404Z,57.03
2022-12-18T08:31:28.948Z,61.40
2022-12-18T08:33:57.521Z,55.40
2022-12-18T08:36:38.848Z,54.28
2022-12-18T08:39:11.236Z,52.65
2022-12-18T08:41:47.206Z,64.53
2022-12-18T08:44:32.959Z,47.08
2022-12-18T08:47:00.835Z,51.67
2022-12-18T08:49:28.670Z,58.38
2022-12-18T08:51:58.042Z,55.97
2022-12-18T08:57:52.215Z,61.10
2022-12-18T09:00:20.930Z,52.38
2022-12-18T09:02:49.397Z,57.03
2022-12-18T09:05:17.861Z,67.85
2022-12-18T09:07:45.824Z,56.72
2022-12-18T09:10:15.564Z,52.92
2022-12-18T09:12:43.402Z,54.05
2022-12-18T09:15:12.980Z,58.88
2022-12-18T09:17:40.967Z,63.50
2022-12-18T09:20:10.077Z,63.30
2022-12-18T09:22:37.911Z,59.45
2022-12-18T09:25:08.685Z,56.97
2022-12-18T09:27:38.568Z,57.25
2022-12-18T09:30:10.144Z,67.78
2022-12-18T09:32:39.483Z,49.55
2022-12-18T09:35:07.867Z,67.63
2022-12-18T09:37:35.799Z,56.53
2022-12-18T09:40:03.869Z,75.75
2022-12-18T09:42:32.127Z,56.80
2022-12-18T09:45:01.382Z,74.03
2022-12-18T09:47:38.167Z,73.88
2022-12-18T09:50:19.398Z,72.68
2022-12-18T09:52:50.192Z,65.38
2022-12-18T09:55:26.285Z,68.50
2022-12-18T09:57:59.023Z,69.50
2022-12-18T10:00:27.718Z,66.30
2022-12-18T10:03:02.914Z,67.68
2022-12-18T10:05:43.672Z,61.80
2022-12-18T10:08:19.768Z,69.68
2022-12-18T10:13:41.261Z,57.17
2022-12-18T10:16:17.566Z,71.18
2022-12-18T10:19:04.907Z,74.43
2022-12-18T10:21:41.828Z,63.65
2022-12-18T10:24:23.190Z,56.17
2022-12-18T10:26:51.158Z,70.05
2022-12-18T10:29:19.587Z,67.88
2022-12-18T10:31:47.534Z,65.57
2022-12-18T10:34:17.300Z,71.47
2022-12-18T10:36:50.237Z,63.58
2022-12-18T10:39:22.768Z,70.78
2022-12-18T10:41:53.376Z,67.05
2022-12-18T10:44:23.088Z,62.15
2022-12-18T10:46:56.695Z,56.15
2022-12-18T10:49:27.302Z,67.60
2022-12-18T10:52:09.510Z,62.80
2022-12-18T10:54:38.870Z,72.80
2022-12-18T10:57:36.960Z,55.92
2022-12-18T11:00:28.577Z,57.13
2022-12-18T11:02:57.256Z,62.35
2022-12-18T11:05:32.700Z,63.58
2022-12-18T11:08:04.830Z,55.90
2022-12-18T11:10:37.670Z,69.90
2022-12-18T11:13:18.238Z,58.67
2022-12-18T11:15:50.077Z,55.13
2022-12-18T11:18:25.556Z,49.08
2022-12-18T11:20:58.662Z,64.30
2022-12-18T11:23:29.194Z,58.88
2022-12-18T11:26:02.612Z,63.38
2022-12-18T11:28:41.853Z,57.85
2022-12-18T11:31:29.848Z,57.25
2022-12-18T11:34:27.913Z,60.15
2022-12-18T11:36:56.816Z,55.15
2022-12-18T11:39:33.794Z,64.20
2022-12-18T11:42:13.451Z,56.88
2022-12-18T11:44:48.172Z,57.08
2022-12-18T11:47:33.665Z,60.63
2022-12-18T11:50:03.756Z,65.53
2022-12-18T11:52:40.926Z,62.78
2022-12-18T11:55:17.986Z,55.28
2022-12-18T11:57:54.143Z,67.70
2022-12-18T12:00:23.322Z,61.42
2022-12-18T12:03:19.221Z,59.35
2022-12-18T12:05:59.456Z,51.33
2022-12-18T12:08:38.658Z,55.78
2022-12-18T12:11:24.847Z,54.60
2022-12-18T12:14:11.763Z,52.83
2022-12-18T12:16:46.983Z,62.10
2022-12-18T12:19:29.784Z,64.63
2022-12-18T12:22:04.974Z,60.67
2022-12-18T12:24:41.966Z,64.45
2022-12-18T12:27:22.635Z,59.35
2022-12-18T12:30:01.925Z,55.33
2022-12-18T12:32:44.451Z,57.15
2022-12-18T12:35:24.532Z,59.67
2022-12-18T12:38:00.699Z,47.45
2022-12-18T12:43:29.670Z,59.35
2022-12-18T12:46:02.222Z,60.25
2022-12-18T12:48:38.799Z,59.67
2022-12-18T12:51:15.734Z,60.75
2022-12-18T12:53:46.505Z,69.75
2022-12-18T12:56:25.891Z,72.20
2022-12-18T12:59:08.773Z,68.00
2022-12-18T13:01:43.241Z,69.00
2022-12-18T13:04:21.532Z,77.70
2022-12-18T13:06:59.327Z,80.15
2022-12-18T13:09:31.482Z,67.38
2022-12-18T13:12:23.092Z,74.55
2022-12-18T13:14:54.257Z,80.70
2022-12-18T13:17:35.530Z,82.88
2022-12-18T13:20:12.707Z,53.57
2022-12-18T13:22:45.300Z,74.90
2022-12-18T13:25:37.793Z,70.32
2022-12-18T13:31:01.370Z,71.75
2022-12-18T13:36:41.391Z,75.40
2022-12-18T13:39:30.024Z,69.10
2022-12-18T13:42:56.385Z,65.25
2022-12-18T13:45:48.033Z,67.22
2022-12-18T13:48:26.009Z,72.70
2022-12-18T13:51:00.964Z,66.35
2022-12-18T13:53:32.569Z,65.88
2022-12-18T13:56:03.651Z,55.30
2022-12-18T13:58:34.315Z,65.60
2022-12-18T14:01:05.602Z,74.88
2022-12-18T14:03:38.000Z,51.53
2022-12-18T14:06:09.926Z,67.45
2022-12-18T14:08:41.482Z,67.88
2022-12-18T14:11:19.264Z,51.60
2022-12-18T14:13:51.389Z,74.93
2022-12-18T14:16:20.417Z,72.57
2022-12-18T14:18:56.341Z,71.20
2022-12-18T14:21:31.707Z,66.15
2022-12-18T14:24:18.598Z,74.88
2022-12-18T14:26:54.926Z,68.32
2022-12-18T14:29:26.699Z,64.20
2022-12-18T14:32:17.542Z,78.13
2022-12-18T14:34:50.550Z,78.00
2022-12-18T14:39:59.125Z,65.88
2022-12-18T14:42:29.283Z,76.88
2022-12-18T14:45:41.105Z,70.00
2022-12-18T14:48:16.304Z,66.13
2022-12-18T14:51:00.465Z,73.65
2022-12-18T14:53:37.134Z,66.78
2022-12-18T14:56:15.439Z,60.28
2022-12-18T14:58:48.643Z,62.20
2022-12-18T15:01:29.255Z,68.22
2022-12-18T15:03:59.503Z,69.88
2022-12-18T15:06:40.791Z,68.45
2022-12-18T15:09:24.604Z,73.30
2022-12-18T15:12:02.071Z,61.78
2022-12-18T15:14:36.909Z,71.55
2022-12-18T15:17:09.420Z,68.90
2022-12-18T15:19:42.424Z,69.25
2022-12-18T15:22:30.543Z,69.40
2022-12-18T15:25:00.134Z,71.75
2022-12-18T15:27:31.773Z,84.28
2022-12-18T15:30:06.954Z,78.10
2022-12-18T15:32:35.256Z,69.80
2022-12-18T15:35:16.819Z,75.38
2022-12-18T15:37:46.909Z,63.42
2022-12-18T15:40:17.351Z,69.53
2022-12-18T15:43:03.518Z,68.10
2022-12-18T15:45:31.493Z,58.63
2022-12-18T15:48:08.582Z,69.13
2022-12-18T15:50:36.827Z,56.00
2022-12-18T15:53:06.248Z,80.18
2022-12-18T15:55:57.815Z,74.38
2022-12-18T15:58:28.989Z,86.50
2022-12-18T16:01:00.262Z,73.03
2022-12-18T16:03:31.002Z,80.53
2022-12-18T16:06:02.883Z,91.22
2022-12-18T16:08:34.291Z,70.70
2022-12-18T16:11:02.836Z,77.43
2022-12-18T16:13:31.034Z,65.60
2022-12-18T16:16:00.784Z,72.18
2022-12-18T16:18:30.107Z,75.30
2022-12-18T16:20:58.160Z,70.57
2022-12-18T16:23:26.169Z,78.85
2022-12-18T16:25:55.692Z,74.72
2022-12-18T16:28:23.778Z,80.43
2022-12-18T16:30:51.806Z,68.93
2022-12-18T16:33:22.242Z,77.05
2022-12-18T16:35:54.054Z,73.45
2022-12-18T16:38:22.161Z,70.18
2022-12-18T16:41:05.909Z,61.35
2022-12-18T16:43:35.317Z,69.97
2022-12-18T16:46:03.274Z,79.32
2022-12-18T16:48:31.221Z,71.57
2022-12-18T16:51:03.569Z,78.13
2022-12-18T16:53:31.711Z,74.28
2022-12-18T16:56:01.184Z,73.43
2022-12-18T16:58:29.147Z,78.18
2022-12-18T17:00:58.521Z,72.35
2022-12-18T17:03:26.670Z,72.38
2022-12-18T17:05:54.633Z,75.78
2022-12-18T17:08:25.096Z,76.32
2022-12-18T17:10:53.054Z,78.97
2022-12-18T17:13:25.535Z,55.05
2022-12-18T17:15:54.086Z,75.07
2022-12-18T17:18:23.570Z,69.30
2022-12-18T17:20:51.562Z,69.20
2022-12-18T17:23:19.610Z,64.25
2022-12-18T17:25:47.520Z,71.18
2022-12-18T17:28:18.232Z,67.13
2022-12-18T17:30:46.290Z,66.35
2022-12-18T17:33:14.273Z,68.28
2022-12-18T17:35:44.891Z,61.67
2022-12-18T17:38:16.772Z,68.93
2022-12-18T17:40:46.585Z,66.40
2022-12-18T17:43:14.758Z,77.00
2022-12-18T17:45:43.763Z,89.72
2022-12-18T17:48:12.136Z,77.95
2022-12-18T17:50:41.134Z,93.43
2022-12-18T17:53:10.511Z,100.97
2022-12-18T17:55:41.258Z,84.80
2022-12-18T17:58:09.225Z,82.20
2022-12-18T18:00:39.770Z,80.90
2022-12-18T18:03:08.977Z,95.20
2022-12-18T18:05:42.922Z,76.80
2022-12-18T18:08:12.357Z,73.47
2022-12-18T18:10:41.129Z,66.03
2022-12-18T18:13:40.792Z,80.15
2022-12-18T18:16:12.601Z,55.30
2022-12-18T18:18:40.753Z,75.60
2022-12-18T18:21:09.856Z,78.57
2022-12-18T18:23:41.680Z,71.68
2022-12-18T18:26:11.647Z,67.78
2022-12-18T18:28:39.608Z,72.10
2022-12-18T18:31:11.393Z,68.28
2022-12-18T18:33:39.852Z,69.35
2022-12-18T18:36:14.315Z,65.78
2022-12-18T18:38:48.186Z,70.57
2022-12-18T18:41:17.296Z,66.47
2022-12-18T18:43:45.505Z,72.50
2022-12-18T18:46:15.536Z,72.93
2022-12-18T18:48:43.900Z,70.97
2022-12-18T18:51:21.375Z,65.55
2022-12-18T18:53:54.966Z,72.00
2022-12-18T18:56:56.576Z,74.65
2022-12-18T18:59:16.262Z,65.22
2022-12-18T19:01:45.095Z,76.50
2022-12-18T19:04:16.466Z,86.25
2022-12-18T19:06:46.669Z,94.93
2022-12-18T19:09:16.641Z,79.57
2022-12-18T19:12:02.257Z,67.18
2022-12-18T19:14:30.416Z,78.60
2022-12-18T19:16:58.700Z,80.13
2022-12-18T19:19:28.310Z,85.78
2022-12-18T19:21:56.674Z,77.00
2022-12-18T19:24:26.955Z,80.25
2022-12-18T19:26:55.382Z,75.82
2022-12-18T19:29:26.283Z,65.65
2022-12-18T19:31:54.338Z,74.97
2022-12-18T19:34:22.487Z,70.28
2022-12-18T19:36:53.895Z,70.97
2022-12-18T19:39:27.651Z,75.60
2022-12-18T19:41:55.813Z,87.50
2022-12-18T19:44:23.993Z,67.38
2022-12-18T19:46:52.806Z,72.15
2022-12-18T19:49:24.052Z,71.78
2022-12-18T19:51:52.417Z,54.90
2022-12-18T19:54:20.779Z,73.22
2022-12-18T19:56:53.162Z,68.95
2022-12-18T19:59:21.324Z,77.95
2022-12-18T20:01:50.463Z,73.32
2022-12-18T20:04:18.720Z,67.20
2022-12-18T20:06:49.097Z,68.15
2022-12-18T20:09:18.199Z,68.03
2022-12-18T20:11:49.822Z,72.25
2022-12-18T20:14:23.392Z,68.18
2022-12-18T20:16:54.368Z,73.72
2022-12-18T20:19:24.654Z,69.20
2022-12-18T20:21:53.122Z,68.82
2022-12-18T20:24:21.500Z,68.72
2022-12-18T20:26:50.073Z,77.43
2022-12-18T20:29:19.647Z,69.72
2022-12-18T20:31:47.845Z,64.78
2022-12-18T20:34:18.444Z,73.45
2022-12-18T20:36:47.682Z,53.03
2022-12-18T20:39:16.377Z,59.60
2022-12-18T20:41:45.685Z,74.22
2022-12-18T20:44:26.249Z,63.40
2022-12-18T20:47:07.760Z,67.95
2022-12-18T20:49:37.566Z,63.40
2022-12-18T20:52:10.617Z,71.93
2022-12-18T20:54:38.696Z,58.83
2022-12-18T20:57:06.752Z,68.55
2022-12-18T20:59:36.525Z,73.57
2022-12-18T21:02:06.127Z,72.95
2022-12-18T21:04:35.659Z,73.75
2022-12-18T21:07:03.681Z,65.80
2022-12-18T21:09:34.235Z,59.72
2022-12-18T21:12:25.459Z,62.05
2022-12-18T21:14:57.290Z,63.20
2022-12-18T21:17:27.043Z,70.05
2022-12-18T21:19:56.597Z,79.47
2022-12-18T21:22:25.204Z,73.22
2022-12-18T21:24:56.065Z,68.10
2022-12-18T21:27:29.824Z,75.53
2022-12-18T21:29:58.113Z,66.10
2022-12-18T21:32:31.955Z,67.95
2022-12-18T21:35:01.839Z,71.00
2022-12-18T21:37:29.832Z,67.82
2022-12-18T21:39:57.802Z,69.93
2022-12-18T21:42:43.226Z,65.15
2022-12-18T21:45:12.140Z,63.60
2022-12-18T21:47:41.556Z,67.75
2022-12-18T21:50:10.177Z,66.38
2022-12-18T21:52:38.234Z,63.40
2022-12-18T21:55:10.160Z,61.00
2022-12-18T21:57:41.350Z,60.25
2022-12-18T22:00:18.281Z,71.25
2022-12-18T22:03:12.404Z,67.07
2022-12-18T22:05:37.161Z,63.33
2022-12-18T22:08:06.966Z,54.97
2022-12-18T22:10:35.469Z,68.97
2022-12-18T22:13:03.806Z,56.40
2022-12-18T22:15:31.846Z,66.75
2022-12-18T22:18:01.241Z,68.05
2022-12-18T22:20:30.215Z,54.05
2022-12-18T22:22:58.546Z,55.15
2022-12-18T22:25:26.889Z,61.15
2022-12-18T22:28:12.219Z,64.88
2022-12-18T22:30:40.430Z,57.28
2022-12-18T22:33:09.708Z,61.05
2022-12-18T22:35:39.698Z,57.95
2022-12-18T22:38:07.899Z,56.30
2022-12-18T22:40:35.804Z,70.18
2022-12-18T22:43:04.227Z,57.67
2022-12-18T22:45:32.352Z,60.13
2022-12-18T22:48:03.134Z,53.72
2022-12-18T22:50:33.856Z,54.70
2022-12-18T22:53:01.920Z,55.75
2022-12-18T22:55:31.541Z,52.75
2022-12-18T22:57:59.464Z,55.00
2022-12-18T23:00:27.331Z,49.50
2022-12-18T23:03:00.423Z,52.38
2022-12-18T23:05:30.465Z,56.70
2022-12-18T23:07:59.878Z,52.33
2022-12-18T23:10:28.958Z,55.33
2022-12-18T23:12:57.177Z,57.17
2022-12-18T23:15:28.185Z,54.45
2022-12-18T23:17:57.709Z,33.92
2022-12-18T23:20:25.937Z,58.65
2022-12-18T23:22:54.138Z,50.55
2022-12-18T23:25:23.521Z,53.92
2022-12-18T23:27:51.617Z,56.35
2022-12-18T23:30:19.780Z,55.63
2022-12-18T23:32:48.265Z,51.67
2022-12-18T23:35:16.268Z,50.63
2022-12-18T23:38:00.533Z,51.60
2022-12-18T23:40:30.875Z,52.95
2022-12-18T23:43:00.216Z,62.78
2022-12-18T23:45:28.311Z,65.85
2022-12-18T23:47:56.381Z,55.70
2022-12-18T23:50:29.679Z,56.65
2022-12-18T23:53:04.979Z,63.08
2022-12-18T23:55:38.529Z,60.08
2022-12-18T23:58:06.539Z,56.33
